Time;durP1;ratioP1;P1;durP2;ratioP2;P2;SDS_P1;SDS_P2;PMS_P1;PMS_P2;Temp;Humidity;BMP_temperature;BMP_pressure;BME280_temperature;BME280_humidity;BME280_pressure;Samples;Min_cycle;Max_cycle;Signal;HPM_P1;HPM_P2
2022/04/24 00:02:07;;;;;;;26.63;21.70;;;10.00;99.90;;;;;;5055653;28;20647;-67
2022/04/24 00:04:32;;;;;;;24.20;21.60;;;10.00;99.90;;;;;;5055508;28;20470;-67
2022/04/24 00:06:58;;;;;;;23.33;20.93;;;9.90;99.90;;;;;;5055605;28;20182;-70
2022/04/24 00:09:23;;;;;;;23.10;20.47;;;10.00;99.90;;;;;;5055104;28;20231;-67
2022/04/24 00:11:49;;;;;;;24.20;21.67;;;10.00;99.90;;;;;;5055332;28;20269;-70
2022/04/24 00:14:17;;;;;;;25.03;22.20;;;10.00;99.90;;;;;;5055355;28;20682;-67
2022/04/24 00:16:43;;;;;;;23.67;21.17;;;10.10;99.90;;;;;;5055214;28;20251;-67
2022/04/24 00:19:09;;;;;;;23.50;21.00;;;10.10;99.90;;;;;;5054961;28;20936;-67
2022/04/24 00:21:34;;;;;;;23.33;21.00;;;10.20;99.90;;;;;;5055169;28;20450;-69
2022/04/24 00:24:00;;;;;;;25.40;21.87;;;10.20;99.90;;;;;;5054912;28;20300;-69
2022/04/24 00:26:26;;;;;;;25.07;22.53;;;10.20;99.90;;;;;;5055095;28;20181;-69
2022/04/24 00:28:52;;;;;;;26.03;22.40;;;10.20;99.90;;;;;;5054776;28;20532;-70
2022/04/24 00:31:17;;;;;;;25.60;22.30;;;10.10;99.90;;;;;;5055162;28;20716;-70
2022/04/24 00:33:43;;;;;;;25.53;21.63;;;10.10;99.90;;;;;;5054833;28;20189;-69
2022/04/24 00:36:08;;;;;;;23.83;21.43;;;10.10;99.90;;;;;;5054942;28;20185;-69
2022/04/24 00:38:35;;;;;;;22.30;20.10;;;10.10;99.90;;;;;;5054455;28;20253;-70
2022/04/24 00:41:01;;;;;;;23.00;20.63;;;10.10;99.90;;;;;;5054760;28;20170;-67
2022/04/24 00:43:26;;;;;;;23.37;20.87;;;10.10;99.90;;;;;;5054712;28;20439;-67
2022/04/24 00:46:00;;;;;;;27.37;20.93;;;10.10;99.90;;;;;;5054803;28;20177;-68
2022/04/24 00:48:26;;;;;;;25.50;21.90;;;10.20;99.90;;;;;;5054483;28;20690;-69
2022/04/24 00:50:52;;;;;;;24.13;21.77;;;10.20;99.90;;;;;;5054607;28;20416;-68
2022/04/24 00:53:17;;;;;;;24.30;21.70;;;10.20;99.90;;;;;;5054426;28;20882;-68
2022/04/24 00:55:43;;;;;;;23.13;20.73;;;10.20;99.90;;;;;;5054303;28;20204;-68
2022/04/24 00:58:10;;;;;;;24.40;21.77;;;10.20;99.90;;;;;;5054280;28;20209;-68
2022/04/24 01:00:38;;;;;;;28.23;20.10;;;10.10;99.90;;;;;;5054387;28;20494;-68
2022/04/24 01:03:03;;;;;;;21.20;19.03;;;10.20;99.90;;;;;;5054288;28;20444;-68
2022/04/24 01:05:29;;;;;;;21.37;19.10;;;10.20;99.90;;;;;;5054492;28;20420;-70
2022/04/24 01:07:54;;;;;;;21.10;18.90;;;10.20;99.90;;;;;;5054189;28;20174;-67
2022/04/24 01:10:20;;;;;;;24.33;21.37;;;10.30;99.90;;;;;;5053976;28;20268;-68
2022/04/24 01:12:46;;;;;;;23.67;21.17;;;10.30;99.90;;;;;;5054308;28;20692;-67
2022/04/24 01:15:11;;;;;;;24.93;21.47;;;10.40;99.90;;;;;;5054277;28;20232;-70
2022/04/24 01:17:37;;;;;;;31.40;27.90;;;10.40;99.90;;;;;;5054060;28;20205;-70
2022/04/24 01:20:03;;;;;;;23.80;21.30;;;10.20;99.90;;;;;;5053834;28;20170;-68
2022/04/24 01:22:29;;;;;;;23.63;20.50;;;10.20;99.90;;;;;;5053689;28;20469;-68
2022/04/24 01:24:54;;;;;;;22.67;20.37;;;10.20;99.90;;;;;;5054018;28;20482;-67
2022/04/24 01:27:20;;;;;;;22.70;20.30;;;10.10;99.90;;;;;;5053974;28;20178;-68
2022/04/24 01:29:45;;;;;;;23.63;21.20;;;10.10;99.90;;;;;;5053599;28;20542;-68
2022/04/24 01:32:11;;;;;;;21.87;19.30;;;10.10;99.90;;;;;;5053836;28;20199;-69
2022/04/24 01:34:36;;;;;;;21.87;19.57;;;10.20;99.90;;;;;;5054096;28;20540;-68
2022/04/24 01:37:02;;;;;;;23.20;20.70;;;10.30;99.90;;;;;;5053647;28;20489;-67
2022/04/24 01:39:27;;;;;;;21.43;19.13;;;10.20;99.90;;;;;;5053395;28;20166;-68
2022/04/24 01:41:55;;;;;;;20.93;18.73;;;10.30;99.90;;;;;;5053670;28;20166;-68
2022/04/24 01:44:21;;;;;;;22.40;20.00;;;10.20;99.90;;;;;;5053611;28;20563;-67
2022/04/24 01:46:47;;;;;;;19.10;17.10;;;10.20;99.90;;;;;;5053672;28;20419;-67
2022/04/24 01:49:13;;;;;;;21.77;19.50;;;10.30;99.90;;;;;;5053242;28;20178;-67
2022/04/24 01:51:38;;;;;;;24.10;20.60;;;10.30;99.90;;;;;;5053460;28;20162;-67
2022/04/24 01:54:04;;;;;;;21.13;18.33;;;10.30;99.90;;;;;;5053291;28;20447;-68
2022/04/24 01:56:29;;;;;;;20.57;18.47;;;10.30;99.90;;;;;;5053390;28;20205;-68
2022/04/24 01:58:55;;;;;;;19.87;17.77;;;10.20;99.90;;;;;;5053168;28;20243;-68
2022/04/24 02:01:20;;;;;;;22.70;19.60;;;10.10;99.90;;;;;;5052095;28;20177;-67
2022/04/24 02:03:46;;;;;;;22.40;19.93;;;10.10;99.90;;;;;;5053244;28;20193;-68
2022/04/24 02:06:12;;;;;;;21.57;19.27;;;10.20;99.90;;;;;;5053107;28;20157;-67
2022/04/24 02:08:38;;;;;;;21.70;19.43;;;10.20;99.90;;;;;;5052235;28;20157;-68
2022/04/24 02:11:04;;;;;;;21.07;18.00;;;10.30;99.90;;;;;;5053115;28;20499;-68
2022/04/24 02:13:30;;;;;;;22.33;20.03;;;10.40;99.90;;;;;;5053042;28;20785;-68
2022/04/24 02:15:55;;;;;;;24.20;20.00;;;10.40;99.90;;;;;;5051803;28;20507;-68
2022/04/24 02:18:21;;;;;;;23.20;20.70;;;10.40;99.90;;;;;;5052605;28;20710;-67
2022/04/24 02:20:46;;;;;;;22.00;19.70;;;10.50;99.90;;;;;;5052907;28;20185;-69
2022/04/24 02:23:12;;;;;;;23.27;19.77;;;10.60;99.90;;;;;;5068992;23;20706;-66
2022/04/24 02:25:37;;;;;;;23.70;20.87;;;10.60;99.90;;;;;;5032931;28;20174;-67
2022/04/24 02:28:03;;;;;;;22.63;19.53;;;10.60;99.90;;;;;;5032799;28;20200;-65
2022/04/24 02:30:29;;;;;;;23.80;20.53;;;10.60;99.90;;;;;;5032406;28;20525;-64
2022/04/24 02:32:59;;;;;;;24.47;21.67;;;10.60;99.90;;;;;;5032076;28;20744;-64
2022/04/24 02:35:27;;;;;;;24.27;20.30;;;10.50;99.90;;;;;;5032391;28;20731;-64
2022/04/24 02:37:52;;;;;;;25.03;22.40;;;10.40;99.90;;;;;;5030695;28;20457;-63
2022/04/24 02:40:21;;;;;;;27.30;23.17;;;10.40;99.90;;;;;;5032267;28;20446;-64
2022/04/24 02:42:51;;;;;;;24.50;21.73;;;10.40;99.90;;;;;;5032631;28;20167;-64
2022/04/24 02:45:17;;;;;;;25.90;20.70;;;10.40;99.90;;;;;;5032782;28;20424;-64
2022/04/24 02:47:43;;;;;;;27.33;22.30;;;10.40;99.90;;;;;;5032719;28;20416;-65
2022/04/24 02:50:08;;;;;;;24.37;21.07;;;10.40;99.90;;;;;;5032184;28;20444;-66
2022/04/24 02:52:48;;;;;;;23.80;20.77;;;10.30;99.90;;;;;;5032350;28;20201;-66
2022/04/24 02:55:14;;;;;;;26.20;21.00;;;10.20;99.90;;;;;;5031823;28;20248;-63
2022/04/24 02:57:40;;;;;;;24.80;20.77;;;10.10;99.90;;;;;;5031623;28;20479;-63
2022/04/24 03:00:07;;;;;;;24.30;21.17;;;10.00;99.90;;;;;;5031648;28;20470;-63
2022/04/24 03:02:42;;;;;;;27.23;23.50;;;10.00;99.90;;;;;;5031709;28;20173;-64
2022/04/24 03:05:16;;;;;;;24.27;21.60;;;10.00;99.90;;;;;;5031574;28;20432;-64
2022/04/24 03:07:42;;;;;;;25.80;21.60;;;10.00;99.90;;;;;;5031458;28;20425;-64
2022/04/24 03:10:09;;;;;;;24.37;20.37;;;10.10;99.90;;;;;;5031214;28;20567;-64
2022/04/24 03:12:36;;;;;;;24.27;20.00;;;10.10;99.90;;;;;;5031372;28;20452;-64
2022/04/24 03:15:03;;;;;;;22.40;19.40;;;10.10;99.90;;;;;;5031630;28;20495;-63
2022/04/24 03:17:31;;;;;;;28.10;21.40;;;10.20;99.90;;;;;;5031297;28;20504;-64
2022/04/24 03:19:56;;;;;;;24.10;20.80;;;10.20;99.90;;;;;;5030923;28;20425;-64
2022/04/24 03:22:22;;;;;;;24.20;20.23;;;10.10;99.90;;;;;;5031318;28;20427;-63
2022/04/24 03:24:47;;;;;;;23.67;21.10;;;10.10;99.90;;;;;;5031266;28;20201;-64
2022/04/24 03:27:13;;;;;;;22.27;19.73;;;10.10;99.90;;;;;;5031873;28;20210;-64
2022/04/24 03:29:39;;;;;;;23.50;20.50;;;10.00;99.90;;;;;;5031675;28;20190;-64
2022/04/24 03:32:05;;;;;;;25.57;22.93;;;10.10;99.90;;;;;;5031670;28;20170;-63
2022/04/24 03:34:31;;;;;;;24.07;21.60;;;10.10;99.90;;;;;;5031405;28;20266;-64
2022/04/24 03:36:56;;;;;;;24.67;21.93;;;10.10;99.90;;;;;;5031066;28;20470;-64
2022/04/24 03:39:22;;;;;;;24.83;20.60;;;10.20;99.90;;;;;;5030786;28;20174;-64
2022/04/24 03:41:47;;;;;;;22.83;20.50;;;10.20;99.90;;;;;;5031310;28;20552;-64
2022/04/24 03:44:13;;;;;;;27.70;23.33;;;10.20;99.90;;;;;;5031935;28;20701;-64
2022/04/24 03:46:38;;;;;;;24.80;21.60;;;10.30;99.90;;;;;;5031696;28;20178;-64
2022/04/24 03:49:04;;;;;;;25.67;22.97;;;10.30;99.90;;;;;;5030894;28;20197;-63
2022/04/24 03:51:29;;;;;;;24.20;21.70;;;10.40;99.90;;;;;;5031227;28;20219;-64
2022/04/24 03:53:55;;;;;;;23.47;20.97;;;10.50;99.90;;;;;;5031362;28;20198;-64
2022/04/24 03:56:20;;;;;;;24.57;21.27;;;10.50;99.90;;;;;;5031572;28;20531;-65
2022/04/24 03:58:46;;;;;;;25.83;23.13;;;10.50;99.90;;;;;;5031360;28;20687;-66
2022/04/24 04:01:12;;;;;;;23.97;21.17;;;10.50;99.90;;;;;;5031704;28;20192;-66
2022/04/24 04:03:38;;;;;;;26.33;21.50;;;10.50;99.90;;;;;;5031382;28;20182;-64
2022/04/24 04:06:03;;;;;;;26.90;22.13;;;10.50;99.90;;;;;;5031341;28;20780;-63
2022/04/24 04:08:29;;;;;;;27.20;23.67;;;10.50;99.90;;;;;;5031051;28;20174;-64
2022/04/24 04:10:54;;;;;;;25.30;22.60;;;10.50;99.90;;;;;;5031258;28;20205;-64
2022/04/24 04:13:20;;;;;;;28.13;22.03;;;10.40;99.90;;;;;;5031183;28;20197;-63
2022/04/24 04:15:45;;;;;;;22.27;19.87;;;10.40;99.90;;;;;;5031461;28;20181;-64
2022/04/24 04:18:11;;;;;;;26.33;23.43;;;10.40;99.90;;;;;;5030882;28;20202;-64
2022/04/24 04:20:36;;;;;;;26.37;21.50;;;10.40;99.90;;;;;;5031192;28;20174;-64
2022/04/24 04:23:03;;;;;;;30.30;23.37;;;10.40;99.90;;;;;;5031185;28;20225;-64
2022/04/24 04:25:29;;;;;;;28.23;22.30;;;10.40;99.90;;;;;;5031392;28;20163;-66
2022/04/24 04:27:54;;;;;;;28.77;23.40;;;10.40;99.90;;;;;;5031330;28;20423;-66
2022/04/24 04:30:21;;;;;;;30.03;21.43;;;10.30;99.90;;;;;;5032098;28;20179;-66
2022/04/24 04:32:46;;;;;;;35.37;26.93;;;10.10;99.90;;;;;;5035054;28;20253;-66
2022/04/24 04:35:12;;;;;;;24.80;20.27;;;9.90;99.90;;;;;;5034931;28;20500;-63
2022/04/24 04:37:42;;;;;;;19.50;13.97;;;9.50;99.90;;;;;;5034674;28;20259;-64
2022/04/24 04:40:10;;;;;;;13.70;11.67;;;9.20;99.90;;;;;;5034571;28;20167;-65
2022/04/24 04:42:36;;;;;;;8.93;7.93;;;8.90;99.90;;;;;;5034720;28;20832;-65
2022/04/24 04:45:03;;;;;;;10.10;7.67;;;8.70;99.90;;;;;;5034773;28;20413;-64
2022/04/24 04:47:29;;;;;;;6.17;4.03;;;8.60;99.90;;;;;;5033492;28;20262;-65
2022/04/24 04:49:55;;;;;;;5.17;2.90;;;8.50;99.90;;;;;;5034441;28;20841;-67
2022/04/24 04:52:22;;;;;;;3.17;2.10;;;8.40;99.90;;;;;;5034681;28;20432;-66
2022/04/24 04:54:47;;;;;;;3.60;1.70;;;8.20;99.90;;;;;;5034484;28;20961;-66
2022/04/24 04:57:13;;;;;;;1.93;1.37;;;8.10;99.90;;;;;;5034484;28;20506;-66
2022/04/24 04:59:38;;;;;;;1.70;1.40;;;8.10;99.90;;;;;;5034326;28;20632;-67
2022/04/24 05:02:05;;;;;;;1.60;1.30;;;8.00;99.90;;;;;;5034648;28;20639;-67
2022/04/24 05:04:30;;;;;;;2.40;1.27;;;8.00;99.90;;;;;;5034558;28;20440;-67
2022/04/24 05:06:56;;;;;;;1.73;1.10;;;8.00;99.90;;;;;;5034484;28;20253;-67
2022/04/24 05:09:21;;;;;;;1.57;0.80;;;7.90;99.90;;;;;;5033970;28;20524;-67
2022/04/24 05:11:47;;;;;;;0.87;0.87;;;7.90;99.90;;;;;;5034398;28;20265;-67
2022/04/24 05:14:12;;;;;;;3.00;1.10;;;7.80;99.90;;;;;;5034264;28;20531;-68
2022/04/24 05:16:38;;;;;;;0.60;0.50;;;7.80;99.90;;;;;;5034213;28;20190;-68
2022/04/24 05:19:07;;;;;;;1.90;0.83;;;7.80;99.90;;;;;;5033871;28;20162;-67
2022/04/24 05:21:33;;;;;;;0.83;0.53;;;7.80;99.90;;;;;;5034166;28;20224;-68
2022/04/24 05:24:00;;;;;;;0.87;0.70;;;7.70;99.90;;;;;;5033904;28;20548;-67
2022/04/24 05:26:26;;;;;;;2.20;0.80;;;7.70;99.90;;;;;;5034192;28;20428;-67
2022/04/24 05:28:52;;;;;;;1.63;0.60;;;7.60;99.90;;;;;;5033865;28;20496;-67
2022/04/24 05:31:18;;;;;;;2.03;0.60;;;7.60;99.90;;;;;;5034009;28;20413;-67
2022/04/24 05:33:43;;;;;;;0.97;0.50;;;7.50;99.90;;;;;;5033846;28;20433;-67
2022/04/24 05:36:09;;;;;;;1.00;0.57;;;7.50;99.90;;;;;;5033854;28;20178;-67
2022/04/24 05:38:34;;;;;;;3.20;0.50;;;7.40;99.90;;;;;;5033505;28;20252;-67
2022/04/24 05:41:00;;;;;;;0.63;0.50;;;7.40;99.90;;;;;;5033677;28;20231;-67
2022/04/24 05:43:25;;;;;;;0.60;0.40;;;7.40;99.90;;;;;;5031397;28;20202;-66
2022/04/24 05:45:51;;;;;;;0.60;0.43;;;7.30;99.90;;;;;;5032505;28;20535;-67
2022/04/24 05:48:18;;;;;;;2.00;0.77;;;7.40;99.90;;;;;;5033348;28;20166;-67
2022/04/24 05:50:44;;;;;;;2.10;0.40;;;7.40;99.90;;;;;;5033679;28;20162;-67
2022/04/24 05:53:10;;;;;;;0.77;0.50;;;7.30;99.90;;;;;;5033418;28;20437;-67
2022/04/24 05:55:36;;;;;;;0.90;0.50;;;7.30;99.90;;;;;;5033597;28;20504;-67
2022/04/24 05:58:01;;;;;;;0.60;0.50;;;7.30;99.90;;;;;;5033434;28;20205;-67
2022/04/24 06:00:27;;;;;;;0.90;0.50;;;7.30;99.90;;;;;;5033316;28;20427;-66
2022/04/24 06:02:53;;;;;;;0.60;0.50;;;7.30;99.90;;;;;;5033313;28;20261;-67
2022/04/24 06:05:19;;;;;;;1.37;0.80;;;7.30;99.90;;;;;;5033371;28;20225;-67
2022/04/24 06:07:44;;;;;;;0.90;0.50;;;7.30;99.90;;;;;;5033237;28;20425;-67
2022/04/24 06:10:11;;;;;;;1.73;0.50;;;7.30;99.90;;;;;;5033059;28;20519;-66
2022/04/24 06:12:47;;;;;;;0.80;0.60;;;7.30;99.90;;;;;;5031872;28;20181;-67
2022/04/24 06:15:15;;;;;;;1.17;0.50;;;7.30;99.90;;;;;;5033236;28;20783;-67
2022/04/24 06:17:47;;;;;;;0.50;0.50;;;7.30;99.90;;;;;;5031721;28;20989;-67
2022/04/24 06:20:13;;;;;;;0.90;0.50;;;7.30;99.90;;;;;;5032698;28;20449;-67
2022/04/24 06:22:42;;;;;;;1.30;0.60;;;7.30;99.90;;;;;;5032864;28;20474;-67
2022/04/24 06:25:08;;;;;;;0.80;0.70;;;7.30;99.90;;;;;;5033061;28;20478;-68
2022/04/24 06:27:33;;;;;;;0.80;0.57;;;7.30;99.90;;;;;;5032905;28;20420;-66
2022/04/24 06:29:59;;;;;;;0.60;0.60;;;7.30;99.90;;;;;;5032722;28;20174;-67
2022/04/24 06:32:28;;;;;;;0.80;0.80;;;7.40;99.90;;;;;;5032836;28;20166;-67
2022/04/24 06:34:54;;;;;;;1.10;0.60;;;7.40;99.90;;;;;;5032712;28;20425;-67
2022/04/24 06:37:19;;;;;;;1.63;0.60;;;7.40;99.90;;;;;;5032718;28;20824;-67
2022/04/24 06:39:45;;;;;;;1.17;0.60;;;7.40;99.90;;;;;;5032378;28;20171;-67
2022/04/24 06:42:10;;;;;;;0.80;0.60;;;7.40;99.90;;;;;;5032659;28;20265;-67
2022/04/24 06:44:36;;;;;;;0.60;0.60;;;7.40;99.90;;;;;;5032979;28;20197;-67
2022/04/24 06:47:01;;;;;;;2.00;0.50;;;7.50;99.90;;;;;;5032589;28;20662;-66
2022/04/24 06:49:27;;;;;;;0.53;0.50;;;7.50;99.90;;;;;;5032153;28;20257;-68
2022/04/24 06:51:52;;;;;;;1.17;1.07;;;7.50;99.90;;;;;;5032596;28;20254;-67
2022/04/24 06:54:18;;;;;;;0.97;0.60;;;7.50;99.90;;;;;;5032052;28;20194;-67
2022/04/24 06:56:43;;;;;;;1.63;1.27;;;7.60;99.90;;;;;;5032353;28;20236;-68
2022/04/24 06:59:09;;;;;;;0.73;0.73;;;7.60;99.90;;;;;;5032146;28;20662;-67
2022/04/24 07:01:34;;;;;;;0.70;0.60;;;7.60;99.90;;;;;;5032387;28;20171;-66
2022/04/24 07:04:00;;;;;;;0.80;0.70;;;7.70;99.90;;;;;;5032104;28;20298;-66
2022/04/24 07:06:25;;;;;;;0.90;0.60;;;7.70;99.90;;;;;;5032328;28;20175;-66
2022/04/24 07:08:51;;;;;;;0.80;0.70;;;7.70;99.90;;;;;;5032142;28;20223;-66
2022/04/24 07:11:17;;;;;;;0.50;0.50;;;7.70;99.90;;;;;;5032208;28;20170;-65
2022/04/24 07:13:44;;;;;;;0.63;0.60;;;7.70;99.90;;;;;;5032139;28;20185;-67
2022/04/24 07:16:10;;;;;;;1.13;1.03;;;7.70;99.90;;;;;;5032051;28;20443;-67
2022/04/24 07:18:35;;;;;;;1.10;0.60;;;7.80;99.90;;;;;;5031657;28;20460;-67
2022/04/24 07:21:02;;;;;;;0.70;0.57;;;7.70;99.90;;;;;;5032062;28;20166;-68
2022/04/24 07:23:28;;;;;;;3.80;2.40;;;7.80;99.90;;;;;;5031900;28;20212;-66
2022/04/24 07:25:54;;;;;;;1.17;1.07;;;7.80;99.90;;;;;;5032018;28;20503;-67
2022/04/24 07:28:19;;;;;;;0.70;0.60;;;7.80;99.90;;;;;;5031695;28;20185;-68
2022/04/24 07:30:45;;;;;;;0.90;0.60;;;7.80;99.90;;;;;;5031977;28;20245;-67
2022/04/24 07:33:12;;;;;;;0.90;0.70;;;7.80;99.90;;;;;;5031739;28;20288;-67
2022/04/24 07:35:40;;;;;;;1.27;0.90;;;7.80;99.90;;;;;;5031966;28;20428;-65
2022/04/24 07:38:06;;;;;;;1.13;0.70;;;7.80;99.90;;;;;;5031796;28;20459;-64
2022/04/24 07:40:35;;;;;;;0.80;0.73;;;7.80;99.90;;;;;;5031676;28;20930;-65
2022/04/24 07:43:04;;;;;;;0.63;0.60;;;7.80;99.90;;;;;;5031737;28;20433;-65
2022/04/24 07:45:38;;;;;;;0.90;0.60;;;7.80;99.90;;;;;;5031759;28;20851;-66
2022/04/24 07:48:06;;;;;;;1.40;1.00;;;7.80;99.90;;;;;;5031818;28;20953;-68
2022/04/24 07:50:36;;;;;;;1.10;0.80;;;7.90;99.90;;;;;;5031598;28;20513;-67
2022/04/24 07:53:03;;;;;;;1.37;0.57;;;7.90;99.90;;;;;;5031717;28;20527;-67
2022/04/24 07:55:29;;;;;;;0.80;0.70;;;7.90;99.90;;;;;;5031764;28;20667;-68
2022/04/24 07:57:57;;;;;;;1.13;0.60;;;8.00;99.90;;;;;;5030393;28;20817;-67
2022/04/24 08:00:25;;;;;;;3.83;0.90;;;8.00;99.90;;;;;;5031392;28;20887;-67
2022/04/24 08:03:10;;;;;;;6.20;3.40;;;8.10;99.90;;;;;;5031621;28;20437;-68
2022/04/24 08:05:39;;;;;;;1.60;0.93;;;8.10;99.90;;;;;;5033096;28;20547;-66
2022/04/24 08:08:07;;;;;;;2.20;0.80;;;8.10;99.90;;;;;;5035572;28;20759;-67
2022/04/24 08:10:35;;;;;;;2.40;1.20;;;8.10;99.90;;;;;;5035323;28;20543;-67
2022/04/24 08:13:04;;;;;;;0.70;0.60;;;8.10;99.90;;;;;;5035380;28;20440;-65
2022/04/24 08:15:30;;;;;;;0.80;0.80;;;8.20;99.90;;;;;;5035384;28;20450;-65
2022/04/24 08:17:56;;;;;;;1.60;1.20;;;8.20;99.90;;;;;;5035284;28;20456;-65
2022/04/24 08:20:21;;;;;;;2.00;1.43;;;8.20;99.90;;;;;;5035104;28;20413;-67
2022/04/24 08:25:16;;;;;;;1.30;1.10;;;8.20;99.90;;;;;;5036590;22;20230;-73
2022/04/24 08:27:42;;;;;;;2.70;1.87;;;8.30;99.90;;;;;;5015341;28;20440;-71
2022/04/24 08:30:09;;;;;;;2.93;2.60;;;8.30;99.90;;;;;;5015110;28;20409;-72
2022/04/24 08:32:36;;;;;;;1.87;1.20;;;8.30;99.90;;;;;;5015239;28;20179;-72
2022/04/24 08:35:02;;;;;;;4.10;1.10;;;8.30;99.90;;;;;;5015106;28;20473;-72
2022/04/24 08:37:28;;;;;;;1.20;1.10;;;8.30;99.90;;;;;;5015723;28;20850;-72
2022/04/24 08:39:54;;;;;;;0.80;0.80;;;8.30;99.90;;;;;;5014928;28;20420;-73
2022/04/24 08:42:23;;;;;;;0.60;0.60;;;8.30;99.90;;;;;;5015313;28;20418;-72
2022/04/24 08:44:50;;;;;;;0.90;0.80;;;8.50;99.90;;;;;;5015090;28;20442;-73
2022/04/24 08:47:17;;;;;;;0.93;0.67;;;8.50;99.90;;;;;;5015106;28;20417;-74
2022/04/24 08:49:43;;;;;;;1.00;0.80;;;8.50;99.90;;;;;;5014763;28;20418;-72
2022/04/24 08:52:14;;;;;;;0.97;0.70;;;8.50;99.90;;;;;;5014908;28;20445;-74
2022/04/24 08:54:41;;;;;;;5.30;3.90;;;8.50;99.90;;;;;;5014838;28;20193;-72
2022/04/24 08:57:08;;;;;;;0.90;0.90;;;8.50;99.90;;;;;;5013506;28;20504;-74
2022/04/24 08:59:33;;;;;;;1.30;1.20;;;8.40;99.90;;;;;;5014544;28;20437;-72
2022/04/24 09:01:59;;;;;;;2.33;1.30;;;8.50;99.90;;;;;;5014774;28;20422;-72
2022/04/24 09:04:31;;;;;;;1.10;0.90;;;8.50;99.90;;;;;;5014550;28;20194;-72
2022/04/24 09:06:57;;;;;;;3.10;1.90;;;8.50;99.90;;;;;;5014686;28;20183;-72
2022/04/24 09:09:23;;;;;;;1.37;1.20;;;8.50;99.90;;;;;;5014358;28;20417;-72
2022/04/24 09:11:48;;;;;;;2.10;1.30;;;8.50;99.90;;;;;;5014603;28;20425;-75
2022/04/24 09:14:14;;;;;;;1.20;1.10;;;8.60;99.90;;;;;;5014454;28;20452;-72
2022/04/24 09:16:47;;;;;;;1.53;1.00;;;8.60;99.90;;;;;;5014164;28;20607;-71
2022/04/24 09:19:23;;;;;;;1.70;1.30;;;8.70;99.90;;;;;;5014073;28;20414;-75
2022/04/24 09:22:00;;;;;;;1.90;1.20;;;8.70;99.90;;;;;;5014682;28;20487;-73
2022/04/24 09:24:37;;;;;;;1.77;0.80;;;8.70;99.90;;;;;;5014281;28;20981;-73
2022/04/24 09:27:02;;;;;;;2.00;1.30;;;8.70;99.90;;;;;;5014190;28;20446;-73
2022/04/24 09:29:28;;;;;;;2.13;0.97;;;8.70;99.90;;;;;;5013973;28;20441;-73
2022/04/24 09:31:53;;;;;;;1.27;1.17;;;8.80;99.90;;;;;;5014147;28;20182;-73
2022/04/24 09:34:20;;;;;;;3.53;2.43;;;8.80;99.90;;;;;;5014132;28;20615;-73
2022/04/24 09:36:57;;;;;;;4.03;2.77;;;8.80;99.90;;;;;;5014053;28;20217;-72
2022/04/24 09:39:31;;;;;;;3.80;1.73;;;8.80;99.90;;;;;;5013847;28;20981;-73
2022/04/24 09:42:10;;;;;;;2.43;1.60;;;8.90;99.90;;;;;;5012660;28;20420;-71
2022/04/24 09:44:38;;;;;;;2.27;1.40;;;9.00;99.90;;;;;;5013981;28;20477;-73
2022/04/24 09:47:05;;;;;;;3.33;2.10;;;9.00;99.90;;;;;;5013945;28;20425;-73
2022/04/24 09:49:39;;;;;;;2.67;1.40;;;9.00;99.90;;;;;;5013615;28;20923;-72
2022/04/24 09:52:15;;;;;;;3.80;2.13;;;9.00;99.90;;;;;;5014383;28;20479;-73
2022/04/24 09:54:46;;;;;;;2.70;1.60;;;9.00;99.90;;;;;;5013602;28;20460;-72
2022/04/24 09:57:14;;;;;;;1.60;1.50;;;9.00;99.90;;;;;;5013890;28;20469;-72
2022/04/24 09:59:45;;;;;;;1.80;1.70;;;9.00;99.90;;;;;;5013636;28;20432;-72
2022/04/24 10:02:15;;;;;;;2.77;2.13;;;8.90;99.90;;;;;;5013799;28;20506;-72
2022/04/24 10:04:42;;;;;;;1.60;1.50;;;9.00;99.90;;;;;;5013839;28;21037;-73
2022/04/24 10:07:09;;;;;;;3.57;2.23;;;9.00;99.90;;;;;;5013443;28;20414;-72
2022/04/24 10:09:38;;;;;;;2.03;1.93;;;9.00;99.90;;;;;;5013199;28;20410;-71
2022/04/24 10:12:06;;;;;;;4.10;1.90;;;9.00;99.90;;;;;;5013397;28;20851;-73
2022/04/24 10:14:36;;;;;;;3.43;2.60;;;9.10;99.90;;;;;;5013356;28;20438;-73
2022/04/24 10:17:27;;;;;;;1.80;1.70;;;9.20;99.90;;;;;;5013491;28;20461;-72
2022/04/24 10:20:23;;;;;;;4.23;3.07;;;9.20;99.90;;;;;;5013204;28;20774;-72
2022/04/24 10:22:53;;;;;;;3.40;1.57;;;9.30;99.90;;;;;;4993758;28;20426;-73
2022/04/24 10:25:29;;;;;;;10.63;7.33;;;9.30;99.90;;;;;;4993478;28;20986;-73
2022/04/24 10:27:55;;;;;;;3.80;1.97;;;9.40;99.90;;;;;;4992757;28;20900;-73
2022/04/24 10:30:24;;;;;;;2.13;1.70;;;9.40;99.90;;;;;;4993187;28;20426;-73
2022/04/24 10:33:20;;;;;;;1.90;1.80;;;9.40;99.90;;;;;;4993486;28;20172;-73
2022/04/24 10:35:50;;;;;;;1.60;1.50;;;9.40;99.90;;;;;;4993317;28;20422;-73
2022/04/24 10:38:18;;;;;;;3.10;1.80;;;9.30;99.90;;;;;;4993069;28;20477;-73
2022/04/24 10:41:06;;;;;;;3.63;2.93;;;9.40;99.90;;;;;;4993234;28;20426;-73
2022/04/24 10:43:39;;;;;;;2.33;2.10;;;9.40;99.90;;;;;;4993294;28;20977;-73
2022/04/24 10:46:35;;;;;;;1.50;1.40;;;9.50;99.90;;;;;;4993359;28;20414;-73
2022/04/24 10:49:11;;;;;;;2.50;2.30;;;9.40;99.90;;;;;;4992762;28;20419;-73
2022/04/24 10:51:40;;;;;;;3.50;2.17;;;9.30;99.90;;;;;;4993133;28;20414;-73
2022/04/24 10:54:08;;;;;;;2.40;2.20;;;9.30;99.90;;;;;;4993110;28;20816;-71
2022/04/24 10:56:35;;;;;;;3.13;1.80;;;9.30;99.90;;;;;;4993016;28;20446;-73
2022/04/24 10:59:42;;;;;;;3.47;1.50;;;9.40;99.90;;;;;;4992749;28;20415;-73
2022/04/24 11:02:09;;;;;;;1.93;1.47;;;9.50;99.90;;;;;;4992996;28;20501;-73
2022/04/24 11:04:42;;;;;;;1.67;1.57;;;9.40;99.90;;;;;;4993073;28;20975;-71
2022/04/24 11:07:08;;;;;;;2.90;1.90;;;9.50;99.90;;;;;;4992891;28;20447;-70
2022/04/24 11:09:36;;;;;;;4.97;2.40;;;9.60;99.90;;;;;;4992431;28;20463;-74
2022/04/24 11:12:08;;;;;;;2.43;2.20;;;9.60;99.90;;;;;;4992760;28;20566;-74
2022/04/24 11:14:35;;;;;;;5.03;1.43;;;9.50;99.90;;;;;;4992757;28;20449;-74
2022/04/24 11:17:03;;;;;;;4.10;1.70;;;9.50;99.90;;;;;;4992826;28;20553;-73
2022/04/24 11:19:36;;;;;;;2.47;1.50;;;9.40;99.90;;;;;;4992294;28;20538;-73
2022/04/24 11:22:06;;;;;;;3.40;2.77;;;9.40;99.90;;;;;;4992611;28;20415;-73
2022/04/24 11:24:33;;;;;;;2.43;2.13;;;9.40;99.90;;;;;;4992366;28;20509;-73
2022/04/24 11:27:11;;;;;;;2.10;1.90;;;9.50;99.90;;;;;;4992626;28;20423;-73
2022/04/24 11:29:37;;;;;;;3.63;1.87;;;9.50;99.90;;;;;;4992323;28;20422;-73
2022/04/24 11:32:07;;;;;;;2.30;1.57;;;9.60;99.90;;;;;;4992408;28;20518;-74
2022/04/24 11:34:34;;;;;;;7.80;5.70;;;9.60;99.90;;;;;;4992461;28;20442;-73
2022/04/24 11:37:01;;;;;;;2.63;2.43;;;9.60;99.90;;;;;;4992312;28;20564;-72
2022/04/24 11:39:28;;;;;;;4.60;3.07;;;9.70;99.90;;;;;;4993232;28;20469;-73
2022/04/24 11:41:58;;;;;;;2.53;1.50;;;9.70;99.90;;;;;;4996873;28;20418;-73
2022/04/24 11:52:48;;;;;;;2.10;1.63;;;9.80;99.90;;;;;;4996861;28;20485;-73
2022/04/24 11:55:19;;;;;;;1.57;1.47;;;9.90;99.90;;;;;;4996410;28;20529;-72
2022/04/24 11:57:56;;;;;;;2.10;1.43;;;9.90;99.90;;;;;;4996240;28;20450;-74
2022/04/24 12:00:39;;;;;;;1.20;1.20;;;9.90;99.90;;;;;;4996101;28;20552;-73
2022/04/24 12:03:06;;;;;;;2.10;1.10;;;9.90;99.90;;;;;;4996241;28;20429;-73
2022/04/24 12:05:32;;;;;;;2.80;1.43;;;9.90;99.90;;;;;;4996268;28;20930;-73
2022/04/24 12:07:59;;;;;;;1.40;1.30;;;9.90;99.90;;;;;;4996152;28;20427;-73
2022/04/24 12:10:25;;;;;;;1.30;1.20;;;9.90;99.90;;;;;;4995881;28;20423;-73
2022/04/24 12:12:52;;;;;;;1.40;1.30;;;9.90;99.90;;;;;;4995960;28;20422;-73
2022/04/24 12:15:23;;;;;;;1.50;1.40;;;10.00;99.90;;;;;;4996235;28;20415;-73
2022/04/24 12:17:56;;;;;;;1.40;1.30;;;10.10;99.90;;;;;;4996064;28;20944;-73
2022/04/24 12:20:33;;;;;;;3.17;1.70;;;10.10;99.90;;;;;;4995811;28;20477;-71
2022/04/24 12:23:08;;;;;;;4.90;1.60;;;10.20;99.90;;;;;;4995732;28;20430;-73
2022/04/24 12:26:03;;;;;;;2.60;2.13;;;10.20;99.90;;;;;;4995859;28;20437;-72
2022/04/24 12:28:35;;;;;;;2.40;2.20;;;10.20;99.90;;;;;;4995598;28;20492;-73
2022/04/24 12:31:02;;;;;;;2.53;2.10;;;10.10;99.90;;;;;;4995742;28;20492;-73
2022/04/24 12:33:29;;;;;;;2.80;2.50;;;10.00;99.90;;;;;;4995731;28;20446;-73
2022/04/24 12:35:55;;;;;;;3.10;2.80;;;10.00;99.90;;;;;;4995753;28;20727;-72
2022/04/24 12:38:22;;;;;;;3.80;3.40;;;9.90;99.90;;;;;;4995295;28;20497;-72
2022/04/24 12:40:54;;;;;;;1.33;1.23;;;10.00;99.90;;;;;;4995621;28;20426;-72
2022/04/24 12:43:28;;;;;;;1.70;1.60;;;10.00;99.90;;;;;;4995450;28;20449;-72
2022/04/24 12:45:55;;;;;;;1.70;1.53;;;9.90;99.90;;;;;;4995623;28;20717;-72
2022/04/24 12:48:21;;;;;;;2.10;1.90;;;9.80;99.90;;;;;;4995158;28;20437;-71
2022/04/24 12:50:48;;;;;;;6.13;2.20;;;9.80;99.90;;;;;;4994786;28;20419;-71
2022/04/24 12:53:15;;;;;;;2.10;1.83;;;9.80;99.90;;;;;;4995202;28;20268;-70
2022/04/24 12:55:41;;;;;;;1.90;1.53;;;9.90;99.90;;;;;;4995273;28;20988;-70
2022/04/24 12:58:07;;;;;;;3.90;2.10;;;9.90;99.90;;;;;;4994821;28;20549;-71
2022/04/24 13:00:35;;;;;;;3.53;1.87;;;9.90;99.90;;;;;;4994846;28;20514;-72